Terminal Aerodrome Forecast
Issued by NWS Pocatello, ID

Home | Current Version | Previous Version | Text Only | Print | Product List | Glossary On
Versions: 1 2 3 4 5 6 7 8 9 10 11 12 13
807
FTUS45 KPIH 181816 RRA
TAFPIH
TAF
KPIH 181816Z 1818/1918 24014G24KT P6SM SKC
     FM190300 20008KT P6SM SKC
     FM191600 24011KT P6SM SKC=

USA.gov is the U.S. government's official web portal to all federal, state and local government web resources and services.